RKTU/CHN METAR and TAF weather

Enter ICAO airport designator
Station Type Date Time Source
RKTU METAR 2019/09/20 20:00 UTC NOAA

RKTU 202000Z 04003KT CAVOK 16/14 Q1018


Station Type Date Time Source
RKTU Decoded METAR 2019/09/20 20:00 UTC NOAA

Chongju Ab, Korea, South (RKTU) 36-42N 127-30E 66M
Sep 20, 2019 - 04:00 PM EDT / 2019.09.20 2000 UTC
Wind: from the NE (040 degrees) at 3 MPH (3 KT):0
Visibility: greater than 7 mile(s):0
Temperature: 60 F (16 C)
Dew Point: 57 F (14 C)
Relative Humidity: 87%
Pressure (altimeter): 30.06 in. Hg (1018 hPa)
ob: RKTU 202000Z 04003KT CAVOK 16/14 Q1018
cycle: 20

Station Type Date Time Source
RKTU TAF 2019/09/20 18:09 UTC NOAA

TAF RKTU 201700Z 2018/2124 09006KT CAVOK TN15/2021Z TX22/2106Z
BECMG 2100/2101 09010KT
BECMG 2104/2105 09012KT 4800 -RA BR BKN030 BKN100
BECMG 2115/2116 06012KT 1600 BKN015 OVC030
BECMG 2120/2121 06010G20KT

Example: see airport list